LHPR/QGY METAR and TAF weather

Enter ICAO airport designator
Station Type Date Time Source
LHPR METAR 2020/12/06 01:45 UTC NOAA

LHPR 060145Z AUTO 13016KT CAVOK 07/06 Q1009


Station Type Date Time Source
LHPR Decoded METAR 2020/12/06 01:45 UTC NOAA

Station name not available
Dec 05, 2020 - 08:45 PM EST / 2020.12.06 0145 UTC
Wind: from the SE (130 degrees) at 18 MPH (16 KT):0
Visibility: greater than 7 mile(s):0
Temperature: 44 F (7 C)
Dew Point: 42 F (6 C)
Relative Humidity: 93%
Pressure (altimeter): 29.80 in. Hg (1009 hPa)
ob: LHPR 060145Z AUTO 13016KT CAVOK 07/06 Q1009
cycle: 2

Station Type Date Time Source
LHPR TAF UTC NOAA

Error!

Example: see airport list